sensor_id;sensor_type;location;lat;lon;timestamp;P1;durP1;ratioP1;P2;durP2;ratioP2
62479;SDS011;48526;48.846;2.322;2022-11-15T00:01:21;7.00;;;7.00;;
62479;SDS011;48526;48.846;2.322;2022-11-15T00:03:50;7.50;;;7.50;;
62479;SDS011;48526;48.846;2.322;2022-11-15T00:06:17;8.00;;;5.75;;
62479;SDS011;48526;48.846;2.322;2022-11-15T00:08:42;7.00;;;4.25;;
62479;SDS011;48526;48.846;2.322;2022-11-15T00:11:09;7.50;;;6.25;;
62479;SDS011;48526;48.846;2.322;2022-11-15T00:13:36;6.25;;;6.25;;
62479;SDS011;48526;48.846;2.322;2022-11-15T00:16:01;7.00;;;6.25;;
62479;SDS011;48526;48.846;2.322;2022-11-15T00:18:29;7.75;;;6.50;;
62479;SDS011;48526;48.846;2.322;2022-11-15T00:20:55;4.25;;;3.00;;
62479;SDS011;48526;48.846;2.322;2022-11-15T00:23:21;5.25;;;3.75;;
62479;SDS011;48526;48.846;2.322;2022-11-15T00:25:47;4.00;;;3.50;;
62479;SDS011;48526;48.846;2.322;2022-11-15T00:28:12;6.00;;;3.00;;
62479;SDS011;48526;48.846;2.322;2022-11-15T05:00:38;2.00;;;1.25;;
62479;SDS011;48526;48.846;2.322;2022-11-15T05:03:15;1.00;;;1.00;;
62479;SDS011;48526;48.846;2.322;2022-11-15T05:06:00;5.25;;;1.75;;
62479;SDS011;48526;48.846;2.322;2022-11-15T05:08:25;1.75;;;1.50;;
62479;SDS011;48526;48.846;2.322;2022-11-15T05:10:51;4.50;;;2.25;;
62479;SDS011;48526;48.846;2.322;2022-11-15T05:13:20;2.25;;;1.75;;
62479;SDS011;48526;48.846;2.322;2022-11-15T05:15:46;1.50;;;1.50;;
62479;SDS011;48526;48.846;2.322;2022-11-15T05:18:12;0.00;;;0.00;;
62479;SDS011;48526;48.846;2.322;2022-11-15T05:20:37;3.00;;;2.00;;
62479;SDS011;48526;48.846;2.322;2022-11-15T05:23:03;4.25;;;2.00;;
62479;SDS011;48526;48.846;2.322;2022-11-15T05:25:28;2.50;;;1.00;;
62479;SDS011;48526;48.846;2.322;2022-11-15T05:27:54;2.50;;;2.00;;
62479;SDS011;48526;48.846;2.322;2022-11-15T05:30:22;6.50;;;4.75;;
62479;SDS011;48526;48.846;2.322;2022-11-15T05:32:47;6.00;;;3.50;;
62479;SDS011;48526;48.846;2.322;2022-11-15T05:35:25;6.00;;;3.00;;
62479;SDS011;48526;48.846;2.322;2022-11-15T05:37:56;2.50;;;2.50;;
62479;SDS011;48526;48.846;2.322;2022-11-15T05:40:22;4.50;;;4.50;;
62479;SDS011;48526;48.846;2.322;2022-11-15T05:42:49;5.75;;;3.25;;
62479;SDS011;48526;48.846;2.322;2022-11-15T05:45:16;6.00;;;3.75;;
62479;SDS011;48526;48.846;2.322;2022-11-15T05:47:41;4.25;;;3.00;;
62479;SDS011;48526;48.846;2.322;2022-11-15T05:50:18;5.50;;;5.50;;
62479;SDS011;48526;48.846;2.322;2022-11-15T05:52:44;10.25;;;5.00;;
62479;SDS011;48526;48.846;2.322;2022-11-15T05:55:11;4.75;;;4.25;;
62479;SDS011;48526;48.846;2.322;2022-11-15T05:57:37;5.00;;;3.00;;
62479;SDS011;48526;48.846;2.322;2022-11-15T06:00:04;13.00;;;9.00;;
62479;SDS011;48526;48.846;2.322;2022-11-15T06:02:35;2.75;;;1.25;;
62479;SDS011;48526;48.846;2.322;2022-11-15T06:05:03;3.50;;;3.00;;
62479;SDS011;48526;48.846;2.322;2022-11-15T06:07:30;4.25;;;4.25;;
62479;SDS011;48526;48.846;2.322;2022-11-15T06:14:15;4.75;;;4.50;;
62479;SDS011;48526;48.846;2.322;2022-11-15T06:16:44;6.25;;;5.00;;
62479;SDS011;48526;48.846;2.322;2022-11-15T06:19:09;7.00;;;6.00;;
62479;SDS011;48526;48.846;2.322;2022-11-15T06:21:35;8.25;;;4.25;;
62479;SDS011;48526;48.846;2.322;2022-11-15T06:24:06;6.25;;;3.00;;
62479;SDS011;48526;48.846;2.322;2022-11-15T06:26:34;4.50;;;3.00;;
62479;SDS011;48526;48.846;2.322;2022-11-15T06:35:09;6.00;;;3.75;;
62479;SDS011;48526;48.846;2.322;2022-11-15T06:37:35;4.25;;;4.25;;
62479;SDS011;48526;48.846;2.322;2022-11-15T06:40:00;2.00;;;2.00;;
62479;SDS011;48526;48.846;2.322;2022-11-15T06:42:26;3.50;;;3.50;;
62479;SDS011;48526;48.846;2.322;2022-11-15T06:44:51;5.50;;;4.00;;
62479;SDS011;48526;48.846;2.322;2022-11-15T06:47:16;5.00;;;5.00;;
62479;SDS011;48526;48.846;2.322;2022-11-15T06:49:42;3.50;;;3.00;;
62479;SDS011;48526;48.846;2.322;2022-11-15T06:52:07;2.75;;;2.75;;
62479;SDS011;48526;48.846;2.322;2022-11-15T06:54:33;7.75;;;7.25;;
62479;SDS011;48526;48.846;2.322;2022-11-15T06:56:58;3.50;;;3.50;;
62479;SDS011;48526;48.846;2.322;2022-11-15T06:59:23;3.00;;;3.00;;
62479;SDS011;48526;48.846;2.322;2022-11-15T07:01:49;4.75;;;3.00;;
62479;SDS011;48526;48.846;2.322;2022-11-15T07:04:14;5.00;;;3.50;;
62479;SDS011;48526;48.846;2.322;2022-11-15T07:06:39;6.50;;;2.75;;
62479;SDS011;48526;48.846;2.322;2022-11-15T07:09:05;6.00;;;4.00;;
62479;SDS011;48526;48.846;2.322;2022-11-15T07:11:31;2.00;;;2.00;;
62479;SDS011;48526;48.846;2.322;2022-11-15T07:14:00;7.25;;;4.50;;
62479;SDS011;48526;48.846;2.322;2022-11-15T07:16:29;4.50;;;3.00;;
62479;SDS011;48526;48.846;2.322;2022-11-15T07:18:54;5.50;;;4.00;;
62479;SDS011;48526;48.846;2.322;2022-11-15T07:21:20;2.00;;;2.00;;
62479;SDS011;48526;48.846;2.322;2022-11-15T07:23:47;6.75;;;5.00;;
62479;SDS011;48526;48.846;2.322;2022-11-15T07:26:16;4.75;;;3.00;;
62479;SDS011;48526;48.846;2.322;2022-11-15T07:28:46;2.00;;;2.00;;
62479;SDS011;48526;48.846;2.322;2022-11-15T07:31:12;5.25;;;5.25;;
62479;SDS011;48526;48.846;2.322;2022-11-15T07:33:37;3.75;;;3.75;;
62479;SDS011;48526;48.846;2.322;2022-11-15T07:36:03;6.75;;;3.00;;
62479;SDS011;48526;48.846;2.322;2022-11-15T07:38:32;6.50;;;2.00;;
62479;SDS011;48526;48.846;2.322;2022-11-15T07:40:59;4.50;;;4.25;;
62479;SDS011;48526;48.846;2.322;2022-11-15T07:43:27;4.75;;;4.75;;
62479;SDS011;48526;48.846;2.322;2022-11-15T07:45:56;3.00;;;3.00;;
62479;SDS011;48526;48.846;2.322;2022-11-15T07:48:22;2.50;;;2.50;;
62479;SDS011;48526;48.846;2.322;2022-11-15T07:50:47;5.50;;;2.00;;
62479;SDS011;48526;48.846;2.322;2022-11-15T07:53:14;5.50;;;4.50;;
62479;SDS011;48526;48.846;2.322;2022-11-15T07:55:40;8.00;;;5.00;;
62479;SDS011;48526;48.846;2.322;2022-11-15T07:58:10;3.00;;;2.00;;
62479;SDS011;48526;48.846;2.322;2022-11-15T08:00:37;4.25;;;4.25;;
62479;SDS011;48526;48.846;2.322;2022-11-15T08:03:03;4.50;;;3.75;;
62479;SDS011;48526;48.846;2.322;2022-11-15T08:05:30;7.00;;;3.25;;
62479;SDS011;48526;48.846;2.322;2022-11-15T08:07:55;4.00;;;3.00;;
62479;SDS011;48526;48.846;2.322;2022-11-15T08:10:21;4.00;;;4.00;;
62479;SDS011;48526;48.846;2.322;2022-11-15T08:12:47;5.75;;;5.25;;
62479;SDS011;48526;48.846;2.322;2022-11-15T08:15:12;3.00;;;3.00;;
62479;SDS011;48526;48.846;2.322;2022-11-15T08:17:38;4.00;;;3.75;;
62479;SDS011;48526;48.846;2.322;2022-11-15T08:20:06;6.00;;;3.00;;
62479;SDS011;48526;48.846;2.322;2022-11-15T08:22:35;7.00;;;6.00;;
62479;SDS011;48526;48.846;2.322;2022-11-15T08:25:05;3.75;;;3.00;;
62479;SDS011;48526;48.846;2.322;2022-11-15T08:27:32;2.00;;;2.00;;
62479;SDS011;48526;48.846;2.322;2022-11-15T08:29:59;3.75;;;2.00;;
62479;SDS011;48526;48.846;2.322;2022-11-15T08:32:26;4.00;;;4.00;;
62479;SDS011;48526;48.846;2.322;2022-11-15T08:34:52;2.50;;;2.50;;
62479;SDS011;48526;48.846;2.322;2022-11-15T08:37:18;2.75;;;2.75;;
62479;SDS011;48526;48.846;2.322;2022-11-15T08:39:43;8.00;;;3.50;;
62479;SDS011;48526;48.846;2.322;2022-11-15T08:42:10;7.25;;;3.25;;
62479;SDS011;48526;48.846;2.322;2022-11-15T08:44:36;2.00;;;2.00;;
62479;SDS011;48526;48.846;2.322;2022-11-15T08:47:01;6.50;;;4.00;;
62479;SDS011;48526;48.846;2.322;2022-11-15T08:49:27;3.25;;;3.00;;
62479;SDS011;48526;48.846;2.322;2022-11-15T08:51:52;2.50;;;2.00;;
62479;SDS011;48526;48.846;2.322;2022-11-15T08:54:18;7.00;;;5.00;;
62479;SDS011;48526;48.846;2.322;2022-11-15T08:56:43;8.00;;;4.50;;
62479;SDS011;48526;48.846;2.322;2022-11-15T08:59:09;6.75;;;4.50;;
62479;SDS011;48526;48.846;2.322;2022-11-15T09:01:34;5.50;;;3.50;;
62479;SDS011;48526;48.846;2.322;2022-11-15T09:04:00;3.25;;;3.25;;
62479;SDS011;48526;48.846;2.322;2022-11-15T09:06:25;4.00;;;4.00;;
62479;SDS011;48526;48.846;2.322;2022-11-15T09:08:50;6.75;;;4.00;;
62479;SDS011;48526;48.846;2.322;2022-11-15T09:11:16;7.00;;;5.50;;
62479;SDS011;48526;48.846;2.322;2022-11-15T09:13:45;3.00;;;3.00;;
62479;SDS011;48526;48.846;2.322;2022-11-15T09:16:10;7.25;;;3.75;;
62479;SDS011;48526;48.846;2.322;2022-11-15T09:18:37;5.00;;;3.00;;
62479;SDS011;48526;48.846;2.322;2022-11-15T09:21:06;5.50;;;3.75;;
62479;SDS011;48526;48.846;2.322;2022-11-15T09:23:32;2.25;;;2.25;;
62479;SDS011;48526;48.846;2.322;2022-11-15T09:26:01;6.50;;;3.50;;
62479;SDS011;48526;48.846;2.322;2022-11-15T09:28:28;5.00;;;5.00;;
62479;SDS011;48526;48.846;2.322;2022-11-15T09:30:57;3.00;;;3.00;;
62479;SDS011;48526;48.846;2.322;2022-11-15T09:33:24;2.75;;;2.75;;
62479;SDS011;48526;48.846;2.322;2022-11-15T09:35:50;6.00;;;3.00;;
62479;SDS011;48526;48.846;2.322;2022-11-15T09:38:17;2.00;;;2.00;;
62479;SDS011;48526;48.846;2.322;2022-11-15T09:40:43;2.75;;;2.75;;
62479;SDS011;48526;48.846;2.322;2022-11-15T09:51:15;3.25;;;2.25;;
62479;SDS011;48526;48.846;2.322;2022-11-15T09:53:53;6.25;;;3.00;;
62479;SDS011;48526;48.846;2.322;2022-11-15T09:56:25;3.25;;;2.00;;
62479;SDS011;48526;48.846;2.322;2022-11-15T09:58:59;2.25;;;2.00;;
62479;SDS011;48526;48.846;2.322;2022-11-15T10:01:38;4.50;;;2.00;;
62479;SDS011;48526;48.846;2.322;2022-11-15T10:04:20;4.00;;;4.00;;
62479;SDS011;48526;48.846;2.322;2022-11-15T10:06:51;4.00;;;3.75;;
62479;SDS011;48526;48.846;2.322;2022-11-15T10:09:24;3.00;;;2.00;;
62479;SDS011;48526;48.846;2.322;2022-11-15T10:11:54;4.50;;;2.00;;
62479;SDS011;48526;48.846;2.322;2022-11-15T10:14:20;3.75;;;2.00;;
62479;SDS011;48526;48.846;2.322;2022-11-15T10:24:46;7.75;;;7.00;;
62479;SDS011;48526;48.846;2.322;2022-11-15T10:27:16;7.75;;;6.25;;
62479;SDS011;48526;48.846;2.322;2022-11-15T10:40:38;2.25;;;2.25;;
62479;SDS011;48526;48.846;2.322;2022-11-15T11:32:28;4.75;;;3.00;;
62479;SDS011;48526;48.846;2.322;2022-11-15T11:48:26;5.25;;;4.00;;
62479;SDS011;48526;48.846;2.322;2022-11-15T11:52:07;6.25;;;5.50;;
62479;SDS011;48526;48.846;2.322;2022-11-15T14:16:35;12.50;;;11.25;;
62479;SDS011;48526;48.846;2.322;2022-11-15T14:19:13;22.50;;;21.50;;
62479;SDS011;48526;48.846;2.322;2022-11-15T14:22:17;12.00;;;11.00;;
62479;SDS011;48526;48.846;2.322;2022-11-15T14:25:03;9.00;;;7.50;;
62479;SDS011;48526;48.846;2.322;2022-11-15T14:27:39;10.50;;;10.50;;
62479;SDS011;48526;48.846;2.322;2022-11-15T14:30:06;9.25;;;8.25;;
62479;SDS011;48526;48.846;2.322;2022-11-15T14:32:42;10.75;;;8.50;;
62479;SDS011;48526;48.846;2.322;2022-11-15T14:35:14;8.50;;;7.75;;
62479;SDS011;48526;48.846;2.322;2022-11-15T14:37:45;11.25;;;9.50;;
62479;SDS011;48526;48.846;2.322;2022-11-15T14:40:20;4.25;;;4.25;;
62479;SDS011;48526;48.846;2.322;2022-11-15T14:42:47;7.75;;;5.25;;
62479;SDS011;48526;48.846;2.322;2022-11-15T14:45:14;6.50;;;5.00;;
62479;SDS011;48526;48.846;2.322;2022-11-15T14:47:42;8.50;;;7.25;;
62479;SDS011;48526;48.846;2.322;2022-11-15T14:50:17;7.50;;;7.50;;
62479;SDS011;48526;48.846;2.322;2022-11-15T14:52:44;10.00;;;10.00;;
62479;SDS011;48526;48.846;2.322;2022-11-15T14:55:32;10.00;;;9.75;;
62479;SDS011;48526;48.846;2.322;2022-11-15T14:57:59;8.00;;;7.50;;
62479;SDS011;48526;48.846;2.322;2022-11-15T15:00:28;8.75;;;7.00;;
62479;SDS011;48526;48.846;2.322;2022-11-15T15:02:57;11.00;;;8.00;;
62479;SDS011;48526;48.846;2.322;2022-11-15T15:08:00;9.00;;;7.00;;
62479;SDS011;48526;48.846;2.322;2022-11-15T15:10:26;15.75;;;11.00;;
62479;SDS011;48526;48.846;2.322;2022-11-15T15:12:56;9.25;;;8.00;;
62479;SDS011;48526;48.846;2.322;2022-11-15T15:15:27;15.50;;;8.25;;
62479;SDS011;48526;48.846;2.322;2022-11-15T15:17:57;7.00;;;7.00;;
62479;SDS011;48526;48.846;2.322;2022-11-15T15:20:23;8.50;;;8.50;;
62479;SDS011;48526;48.846;2.322;2022-11-15T15:22:48;15.50;;;9.50;;
62479;SDS011;48526;48.846;2.322;2022-11-15T15:25:24;8.50;;;7.50;;
62479;SDS011;48526;48.846;2.322;2022-11-15T15:27:53;10.00;;;8.75;;
62479;SDS011;48526;48.846;2.322;2022-11-15T15:30:20;7.00;;;7.00;;
62479;SDS011;48526;48.846;2.322;2022-11-15T15:32:46;12.00;;;10.00;;
62479;SDS011;48526;48.846;2.322;2022-11-15T15:35:12;10.00;;;10.00;;
62479;SDS011;48526;48.846;2.322;2022-11-15T15:37:42;10.25;;;9.00;;
62479;SDS011;48526;48.846;2.322;2022-11-15T15:40:21;9.75;;;8.50;;
62479;SDS011;48526;48.846;2.322;2022-11-15T15:42:51;7.75;;;7.75;;
62479;SDS011;48526;48.846;2.322;2022-11-15T15:45:17;9.25;;;7.25;;
62479;SDS011;48526;48.846;2.322;2022-11-15T15:47:43;7.50;;;7.00;;
62479;SDS011;48526;48.846;2.322;2022-11-15T15:52:52;9.25;;;5.00;;
62479;SDS011;48526;48.846;2.322;2022-11-15T15:55:20;11.75;;;6.25;;
62479;SDS011;48526;48.846;2.322;2022-11-15T15:57:45;9.50;;;9.50;;
62479;SDS011;48526;48.846;2.322;2022-11-15T16:00:13;6.00;;;4.50;;
62479;SDS011;48526;48.846;2.322;2022-11-15T16:02:40;9.25;;;8.00;;
62479;SDS011;48526;48.846;2.322;2022-11-15T16:05:08;9.00;;;8.25;;
62479;SDS011;48526;48.846;2.322;2022-11-15T16:07:35;9.00;;;6.75;;
62479;SDS011;48526;48.846;2.322;2022-11-15T16:10:01;8.75;;;7.50;;
62479;SDS011;48526;48.846;2.322;2022-11-15T16:12:28;7.75;;;6.00;;
62479;SDS011;48526;48.846;2.322;2022-11-15T16:14:57;9.75;;;8.25;;
62479;SDS011;48526;48.846;2.322;2022-11-15T16:17:28;7.00;;;7.00;;
62479;SDS011;48526;48.846;2.322;2022-11-15T16:19:57;8.00;;;6.50;;
62479;SDS011;48526;48.846;2.322;2022-11-15T16:25:57;11.00;;;10.00;;
62479;SDS011;48526;48.846;2.322;2022-11-15T16:28:26;11.00;;;9.00;;
62479;SDS011;48526;48.846;2.322;2022-11-15T16:31:00;10.75;;;9.75;;
62479;SDS011;48526;48.846;2.322;2022-11-15T16:33:30;9.00;;;9.00;;
62479;SDS011;48526;48.846;2.322;2022-11-15T16:36:19;12.25;;;10.00;;
62479;SDS011;48526;48.846;2.322;2022-11-15T16:38:57;9.00;;;6.00;;
62479;SDS011;48526;48.846;2.322;2022-11-15T16:41:26;8.00;;;6.75;;
62479;SDS011;48526;48.846;2.322;2022-11-15T16:43:54;11.75;;;10.25;;
62479;SDS011;48526;48.846;2.322;2022-11-15T16:46:22;10.75;;;8.75;;
62479;SDS011;48526;48.846;2.322;2022-11-15T16:48:49;8.00;;;8.00;;
62479;SDS011;48526;48.846;2.322;2022-11-15T16:51:19;9.00;;;8.00;;
62479;SDS011;48526;48.846;2.322;2022-11-15T16:53:46;10.25;;;7.50;;
62479;SDS011;48526;48.846;2.322;2022-11-15T16:58:48;13.75;;;9.25;;
62479;SDS011;48526;48.846;2.322;2022-11-15T17:01:16;10.00;;;8.00;;
62479;SDS011;48526;48.846;2.322;2022-11-15T17:03:44;9.50;;;9.25;;
62479;SDS011;48526;48.846;2.322;2022-11-15T17:06:13;13.25;;;10.00;;
62479;SDS011;48526;48.846;2.322;2022-11-15T17:08:50;8.00;;;8.00;;
62479;SDS011;48526;48.846;2.322;2022-11-15T17:11:26;8.75;;;8.75;;
62479;SDS011;48526;48.846;2.322;2022-11-15T17:14:01;9.00;;;9.00;;
62479;SDS011;48526;48.846;2.322;2022-11-15T17:16:32;8.25;;;8.25;;
62479;SDS011;48526;48.846;2.322;2022-11-15T17:22:13;11.25;;;10.75;;
62479;SDS011;48526;48.846;2.322;2022-11-15T17:24:43;10.00;;;10.00;;
62479;SDS011;48526;48.846;2.322;2022-11-15T17:27:09;9.00;;;9.00;;
62479;SDS011;48526;48.846;2.322;2022-11-15T17:29:45;10.25;;;9.25;;
62479;SDS011;48526;48.846;2.322;2022-11-15T17:32:11;9.00;;;8.00;;
62479;SDS011;48526;48.846;2.322;2022-11-15T17:34:37;16.00;;;11.00;;
62479;SDS011;48526;48.846;2.322;2022-11-15T17:37:03;10.00;;;8.00;;
62479;SDS011;48526;48.846;2.322;2022-11-15T17:39:34;8.25;;;8.00;;
62479;SDS011;48526;48.846;2.322;2022-11-15T17:42:24;10.25;;;9.75;;
62479;SDS011;48526;48.846;2.322;2022-11-15T17:45:36;9.50;;;9.50;;
62479;SDS011;48526;48.846;2.322;2022-11-15T17:48:25;11.25;;;9.75;;
62479;SDS011;48526;48.846;2.322;2022-11-15T17:51:03;11.50;;;11.00;;
62479;SDS011;48526;48.846;2.322;2022-11-15T17:53:33;18.25;;;12.50;;
62479;SDS011;48526;48.846;2.322;2022-11-15T17:56:14;16.50;;;11.75;;
62479;SDS011;48526;48.846;2.322;2022-11-15T17:59:00;15.00;;;14.25;;
62479;SDS011;48526;48.846;2.322;2022-11-15T18:01:31;13.75;;;10.00;;
62479;SDS011;48526;48.846;2.322;2022-11-15T18:04:02;13.50;;;10.00;;
62479;SDS011;48526;48.846;2.322;2022-11-15T18:07:17;15.75;;;11.50;;
62479;SDS011;48526;48.846;2.322;2022-11-15T18:13:19;16.25;;;12.75;;
62479;SDS011;48526;48.846;2.322;2022-11-15T18:15:56;11.00;;;10.00;;
62479;SDS011;48526;48.846;2.322;2022-11-15T18:33:04;10.50;;;8.00;;
62479;SDS011;48526;48.846;2.322;2022-11-15T18:35:30;9.25;;;8.75;;
62479;SDS011;48526;48.846;2.322;2022-11-15T18:37:55;9.00;;;9.00;;
62479;SDS011;48526;48.846;2.322;2022-11-15T18:40:21;8.00;;;6.75;;
62479;SDS011;48526;48.846;2.322;2022-11-15T18:42:46;9.25;;;9.25;;
62479;SDS011;48526;48.846;2.322;2022-11-15T18:45:18;11.25;;;9.25;;
62479;SDS011;48526;48.846;2.322;2022-11-15T18:47:54;13.00;;;10.00;;
62479;SDS011;48526;48.846;2.322;2022-11-15T18:50:24;10.25;;;6.50;;
62479;SDS011;48526;48.846;2.322;2022-11-15T18:52:52;10.50;;;10.50;;
62479;SDS011;48526;48.846;2.322;2022-11-15T18:55:18;10.50;;;10.50;;
62479;SDS011;48526;48.846;2.322;2022-11-15T18:57:43;12.00;;;11.00;;
62479;SDS011;48526;48.846;2.322;2022-11-15T19:00:13;16.50;;;12.75;;
62479;SDS011;48526;48.846;2.322;2022-11-15T19:02:39;10.25;;;9.25;;
62479;SDS011;48526;48.846;2.322;2022-11-15T19:05:05;14.00;;;12.00;;
62479;SDS011;48526;48.846;2.322;2022-11-15T19:07:31;9.25;;;7.50;;
62479;SDS011;48526;48.846;2.322;2022-11-15T19:09:56;12.50;;;10.75;;
62479;SDS011;48526;48.846;2.322;2022-11-15T19:12:22;9.00;;;7.25;;
62479;SDS011;48526;48.846;2.322;2022-11-15T19:14:47;4.00;;;3.50;;
62479;SDS011;48526;48.846;2.322;2022-11-15T19:20:37;6.00;;;6.00;;
62479;SDS011;48526;48.846;2.322;2022-11-15T19:23:18;11.50;;;5.50;;
62479;SDS011;48526;48.846;2.322;2022-11-15T19:26:13;7.25;;;5.00;;
62479;SDS011;48526;48.846;2.322;2022-11-15T19:29:00;3.50;;;3.50;;
62479;SDS011;48526;48.846;2.322;2022-11-15T19:31:45;10.00;;;7.00;;
62479;SDS011;48526;48.846;2.322;2022-11-15T19:34:27;7.00;;;3.25;;
62479;SDS011;48526;48.846;2.322;2022-11-15T19:37:12;8.00;;;5.00;;
62479;SDS011;48526;48.846;2.322;2022-11-15T19:39:55;14.50;;;12.50;;
62479;SDS011;48526;48.846;2.322;2022-11-15T19:42:31;5.75;;;5.75;;
62479;SDS011;48526;48.846;2.322;2022-11-15T19:45:22;4.75;;;4.25;;
62479;SDS011;48526;48.846;2.322;2022-11-15T19:47:51;2.25;;;2.25;;
62479;SDS011;48526;48.846;2.322;2022-11-15T19:50:16;4.75;;;4.00;;
62479;SDS011;48526;48.846;2.322;2022-11-15T19:52:43;5.00;;;4.00;;
62479;SDS011;48526;48.846;2.322;2022-11-15T19:55:11;5.00;;;3.50;;
62479;SDS011;48526;48.846;2.322;2022-11-15T19:57:36;4.00;;;3.00;;
62479;SDS011;48526;48.846;2.322;2022-11-15T20:00:03;8.25;;;4.50;;
62479;SDS011;48526;48.846;2.322;2022-11-15T20:02:30;5.25;;;4.75;;
62479;SDS011;48526;48.846;2.322;2022-11-15T20:04:56;6.50;;;6.50;;
62479;SDS011;48526;48.846;2.322;2022-11-15T20:07:23;3.00;;;3.00;;
62479;SDS011;48526;48.846;2.322;2022-11-15T20:09:49;9.25;;;5.00;;
62479;SDS011;48526;48.846;2.322;2022-11-15T20:12:14;5.00;;;3.50;;
62479;SDS011;48526;48.846;2.322;2022-11-15T20:14:40;6.00;;;5.00;;
62479;SDS011;48526;48.846;2.322;2022-11-15T20:17:05;3.75;;;3.50;;
62479;SDS011;48526;48.846;2.322;2022-11-15T20:19:31;5.00;;;4.00;;
62479;SDS011;48526;48.846;2.322;2022-11-15T20:21:57;2.75;;;2.75;;
62479;SDS011;48526;48.846;2.322;2022-11-15T20:24:22;3.25;;;3.00;;
62479;SDS011;48526;48.846;2.322;2022-11-15T20:26:48;3.75;;;2.25;;
62479;SDS011;48526;48.846;2.322;2022-11-15T20:29:15;2.00;;;2.00;;
62479;SDS011;48526;48.846;2.322;2022-11-15T20:31:43;4.00;;;4.00;;
62479;SDS011;48526;48.846;2.322;2022-11-15T20:34:10;5.25;;;5.00;;
62479;SDS011;48526;48.846;2.322;2022-11-15T20:36:48;4.50;;;2.50;;
62479;SDS011;48526;48.846;2.322;2022-11-15T20:39:19;3.00;;;3.00;;
62479;SDS011;48526;48.846;2.322;2022-11-15T20:41:45;3.00;;;3.00;;
62479;SDS011;48526;48.846;2.322;2022-11-15T20:44:12;2.00;;;2.00;;
62479;SDS011;48526;48.846;2.322;2022-11-15T20:46:38;3.00;;;3.00;;
62479;SDS011;48526;48.846;2.322;2022-11-15T20:49:04;3.75;;;2.50;;
62479;SDS011;48526;48.846;2.322;2022-11-15T20:51:33;4.50;;;2.00;;
62479;SDS011;48526;48.846;2.322;2022-11-15T20:54:00;3.00;;;3.00;;
62479;SDS011;48526;48.846;2.322;2022-11-15T20:56:26;2.00;;;2.00;;
62479;SDS011;48526;48.846;2.322;2022-11-15T20:58:51;5.75;;;5.00;;
62479;SDS011;48526;48.846;2.322;2022-11-15T21:01:22;3.00;;;3.00;;
62479;SDS011;48526;48.846;2.322;2022-11-15T21:04:01;3.75;;;3.25;;
62479;SDS011;48526;48.846;2.322;2022-11-15T21:06:29;6.75;;;6.25;;
62479;SDS011;48526;48.846;2.322;2022-11-15T21:08:56;3.75;;;2.00;;
62479;SDS011;48526;48.846;2.322;2022-11-15T21:11:40;2.00;;;2.00;;
62479;SDS011;48526;48.846;2.322;2022-11-15T21:14:25;9.25;;;3.00;;
62479;SDS011;48526;48.846;2.322;2022-11-15T21:16:52;4.00;;;2.75;;
62479;SDS011;48526;48.846;2.322;2022-11-15T21:19:22;4.25;;;2.75;;
62479;SDS011;48526;48.846;2.322;2022-11-15T21:21:52;3.25;;;2.50;;
62479;SDS011;48526;48.846;2.322;2022-11-15T21:24:19;3.50;;;3.25;;
62479;SDS011;48526;48.846;2.322;2022-11-15T21:26:50;4.75;;;3.00;;
62479;SDS011;48526;48.846;2.322;2022-11-15T21:29:18;3.00;;;3.00;;
62479;SDS011;48526;48.846;2.322;2022-11-15T21:31:44;2.00;;;1.00;;
62479;SDS011;48526;48.846;2.322;2022-11-15T21:34:21;3.00;;;3.00;;
62479;SDS011;48526;48.846;2.322;2022-11-15T21:37:03;4.00;;;3.00;;
62479;SDS011;48526;48.846;2.322;2022-11-15T21:39:45;3.00;;;2.25;;
62479;SDS011;48526;48.846;2.322;2022-11-15T21:42:15;3.25;;;2.75;;
62479;SDS011;48526;48.846;2.322;2022-11-15T21:44:42;2.50;;;2.50;;
62479;SDS011;48526;48.846;2.322;2022-11-15T21:47:08;1.25;;;1.25;;
62479;SDS011;48526;48.846;2.322;2022-11-15T21:49:39;4.75;;;2.00;;
62479;SDS011;48526;48.846;2.322;2022-11-15T21:52:16;4.00;;;3.00;;
62479;SDS011;48526;48.846;2.322;2022-11-15T21:55:06;4.25;;;2.75;;
62479;SDS011;48526;48.846;2.322;2022-11-15T21:57:38;4.00;;;2.00;;
62479;SDS011;48526;48.846;2.322;2022-11-15T22:00:07;1.00;;;1.00;;
62479;SDS011;48526;48.846;2.322;2022-11-15T22:02:54;4.00;;;3.00;;
62479;SDS011;48526;48.846;2.322;2022-11-15T22:05:22;1.25;;;1.25;;
62479;SDS011;48526;48.846;2.322;2022-11-15T22:07:51;2.50;;;2.00;;
62479;SDS011;48526;48.846;2.322;2022-11-15T22:10:17;5.25;;;2.00;;
62479;SDS011;48526;48.846;2.322;2022-11-15T22:12:46;3.00;;;2.00;;
62479;SDS011;48526;48.846;2.322;2022-11-15T22:15:11;1.75;;;0.25;;
62479;SDS011;48526;48.846;2.322;2022-11-15T22:17:39;1.00;;;1.00;;
62479;SDS011;48526;48.846;2.322;2022-11-15T22:20:26;3.00;;;1.25;;
62479;SDS011;48526;48.846;2.322;2022-11-15T22:22:54;1.75;;;1.75;;
62479;SDS011;48526;48.846;2.322;2022-11-15T22:25:26;1.75;;;1.00;;
62479;SDS011;48526;48.846;2.322;2022-11-15T22:27:54;1.00;;;0.75;;
62479;SDS011;48526;48.846;2.322;2022-11-15T22:30:21;2.50;;;1.00;;
62479;SDS011;48526;48.846;2.322;2022-11-15T22:32:46;0.75;;;0.75;;
62479;SDS011;48526;48.846;2.322;2022-11-15T22:35:14;0.50;;;0.50;;
62479;SDS011;48526;48.846;2.322;2022-11-15T22:37:40;3.00;;;1.25;;
62479;SDS011;48526;48.846;2.322;2022-11-15T22:40:08;3.00;;;1.00;;
62479;SDS011;48526;48.846;2.322;2022-11-15T22:42:35;3.50;;;2.00;;
62479;SDS011;48526;48.846;2.322;2022-11-15T22:45:00;3.00;;;1.00;;
62479;SDS011;48526;48.846;2.322;2022-11-15T22:47:26;4.00;;;2.25;;
62479;SDS011;48526;48.846;2.322;2022-11-15T22:49:51;2.00;;;2.00;;
62479;SDS011;48526;48.846;2.322;2022-11-15T22:52:17;3.50;;;2.00;;
62479;SDS011;48526;48.846;2.322;2022-11-15T22:54:42;1.25;;;0.00;;
62479;SDS011;48526;48.846;2.322;2022-11-15T22:57:08;1.00;;;1.00;;
62479;SDS011;48526;48.846;2.322;2022-11-15T22:59:34;1.00;;;1.00;;
62479;SDS011;48526;48.846;2.322;2022-11-15T23:02:01;2.50;;;1.00;;
62479;SDS011;48526;48.846;2.322;2022-11-15T23:04:27;3.00;;;1.50;;
62479;SDS011;48526;48.846;2.322;2022-11-15T23:06:53;2.00;;;2.00;;
62479;SDS011;48526;48.846;2.322;2022-11-15T23:09:18;2.00;;;1.50;;
62479;SDS011;48526;48.846;2.322;2022-11-15T23:11:44;3.75;;;2.50;;
62479;SDS011;48526;48.846;2.322;2022-11-15T23:14:28;7.50;;;2.00;;
62479;SDS011;48526;48.846;2.322;2022-11-15T23:16:54;2.75;;;1.00;;
62479;SDS011;48526;48.846;2.322;2022-11-15T23:19:19;1.00;;;1.00;;
62479;SDS011;48526;48.846;2.322;2022-11-15T23:21:45;1.00;;;0.25;;
62479;SDS011;48526;48.846;2.322;2022-11-15T23:24:30;3.00;;;2.00;;
62479;SDS011;48526;48.846;2.322;2022-11-15T23:26:57;3.00;;;1.75;;
62479;SDS011;48526;48.846;2.322;2022-11-15T23:29:25;1.00;;;1.00;;
62479;SDS011;48526;48.846;2.322;2022-11-15T23:31:54;1.75;;;0.75;;
62479;SDS011;48526;48.846;2.322;2022-11-15T23:34:39;2.25;;;1.00;;
62479;SDS011;48526;48.846;2.322;2022-11-15T23:37:09;1.00;;;0.75;;
62479;SDS011;48526;48.846;2.322;2022-11-15T23:39:36;4.75;;;2.50;;
62479;SDS011;48526;48.846;2.322;2022-11-15T23:42:01;2.00;;;1.00;;
62479;SDS011;48526;48.846;2.322;2022-11-15T23:44:27;2.75;;;2.75;;
62479;SDS011;48526;48.846;2.322;2022-11-15T23:46:52;3.00;;;1.25;;
62479;SDS011;48526;48.846;2.322;2022-11-15T23:49:18;1.00;;;1.00;;
62479;SDS011;48526;48.846;2.322;2022-11-15T23:51:44;1.75;;;0.75;;
62479;SDS011;48526;48.846;2.322;2022-11-15T23:54:10;1.50;;;0.75;;
62479;SDS011;48526;48.846;2.322;2022-11-15T23:56:36;1.25;;;1.25;;
62479;SDS011;48526;48.846;2.322;2022-11-15T23:59:02;7.25;;;1.75;;
